Time;durP1;ratioP1;P1;durP2;ratioP2;P2;SDS_P1;SDS_P2;PMS_P1;PMS_P2;Temp;Humidity;BMP_temperature;BMP_pressure;BME280_temperature;BME280_humidity;BME280_pressure;Samples;Min_cycle;Max_cycle;Signal;HPM_P1;HPM_P2
2024/02/15 00:00:35;;;;;;;9.53;6.17;;;12.00;99.90;;;;;;799123;174;26978;-81
2024/02/15 00:03:01;;;;;;;6.73;5.60;;;12.00;99.90;;;;;;800664;174;26415;-82
2024/02/15 00:05:28;;;;;;;9.90;6.17;;;12.10;99.90;;;;;;795749;178;26502;-82
2024/02/15 00:07:54;;;;;;;7.23;5.67;;;12.00;99.90;;;;;;794303;178;26443;-82
2024/02/15 00:10:23;;;;;;;8.27;5.17;;;12.10;99.90;;;;;;798532;179;26417;-81
2024/02/15 00:12:48;;;;;;;13.23;6.03;;;12.10;99.90;;;;;;794902;176;26410;-81
2024/02/15 00:15:14;;;;;;;9.73;6.20;;;12.10;99.90;;;;;;799477;179;26486;-81
2024/02/15 00:17:41;;;;;;;8.23;5.13;;;12.10;99.90;;;;;;802401;179;26458;-81
2024/02/15 00:20:09;;;;;;;5.23;4.73;;;12.00;99.90;;;;;;803426;177;26448;-81
2024/02/15 00:22:35;;;;;;;8.23;5.40;;;12.00;99.90;;;;;;794673;176;27664;-82
2024/02/15 00:25:01;;;;;;;6.23;4.70;;;12.00;99.90;;;;;;798078;179;26426;-81
2024/02/15 00:27:28;;;;;;;6.30;5.70;;;12.00;99.90;;;;;;787674;182;26622;-81
2024/02/15 00:29:55;;;;;;;8.77;4.90;;;11.90;99.90;;;;;;796567;180;26953;-81
2024/02/15 00:32:21;;;;;;;11.33;5.67;;;12.00;99.90;;;;;;796318;174;26406;-81
2024/02/15 00:34:48;;;;;;;9.03;4.97;;;12.00;99.90;;;;;;778867;184;26473;-81
2024/02/15 00:37:14;;;;;;;7.40;5.13;;;12.00;99.90;;;;;;780439;184;26455;-81
2024/02/15 00:39:42;;;;;;;9.50;4.80;;;12.00;99.90;;;;;;795392;178;26415;-80
2024/02/15 00:42:08;;;;;;;5.17;4.30;;;12.10;99.90;;;;;;794851;176;26415;-81
2024/02/15 00:44:34;;;;;;;9.33;5.47;;;12.10;99.90;;;;;;797876;175;26407;-82
2024/02/15 00:47:01;;;;;;;8.43;5.90;;;12.10;99.90;;;;;;800049;177;26442;-82
2024/02/15 00:49:27;;;;;;;8.60;5.03;;;12.10;99.90;;;;;;775873;183;26991;-82
2024/02/15 00:51:54;;;;;;;8.77;5.73;;;12.00;99.90;;;;;;796360;175;26411;-81
2024/02/15 00:54:22;;;;;;;7.70;6.00;;;12.10;99.90;;;;;;795068;178;26444;-81
2024/02/15 00:56:47;;;;;;;7.03;5.40;;;12.10;99.90;;;;;;799124;174;26435;-81
2024/02/15 00:59:14;;;;;;;14.77;6.50;;;12.00;99.90;;;;;;799953;179;26413;-81
2024/02/15 01:01:40;;;;;;;8.20;5.70;;;12.10;99.90;;;;;;805839;174;26418;-81
2024/02/15 01:04:07;;;;;;;9.57;5.90;;;12.00;99.90;;;;;;796996;177;26403;-82
2024/02/15 01:06:33;;;;;;;11.47;5.90;;;12.10;99.90;;;;;;798854;177;26478;-81
2024/02/15 01:09:03;;;;;;;9.37;6.47;;;12.10;99.90;;;;;;797008;177;26397;-82
2024/02/15 01:11:29;;;;;;;7.63;5.17;;;12.10;99.90;;;;;;797647;174;26422;-82
2024/02/15 01:13:56;;;;;;;11.17;5.33;;;12.20;99.90;;;;;;779114;183;26442;-82
2024/02/15 01:16:24;;;;;;;6.50;4.70;;;12.20;99.90;;;;;;790730;177;26448;-80
2024/02/15 01:18:50;;;;;;;11.03;6.53;;;12.20;99.90;;;;;;804267;177;26470;-80
2024/02/15 01:21:16;;;;;;;12.77;6.30;;;12.20;99.90;;;;;;801347;178;26433;-81
2024/02/15 01:23:44;;;;;;;8.07;6.07;;;12.20;99.90;;;;;;800109;177;26430;-81
2024/02/15 01:26:12;;;;;;;10.53;5.90;;;12.20;99.90;;;;;;799409;178;26439;-82
2024/02/15 01:28:36;;;;;;;8.03;5.40;;;12.20;99.90;;;;;;774688;182;26488;-81
2024/02/15 01:31:03;;;;;;;10.30;5.93;;;12.10;99.90;;;;;;779176;184;26456;-81
2024/02/15 01:33:31;;;;;;;7.93;5.50;;;12.10;99.90;;;;;;764886;186;26531;-80
2024/02/15 01:35:56;;;;;;;8.93;5.50;;;12.10;99.90;;;;;;765056;184;28058;-82
2024/02/15 01:38:23;;;;;;;9.37;5.67;;;12.10;99.90;;;;;;785505;182;26456;-82
2024/02/15 01:40:49;;;;;;;12.07;6.00;;;12.10;99.90;;;;;;777300;184;26504;-82
2024/02/15 01:43:16;;;;;;;10.53;5.70;;;12.00;99.90;;;;;;799031;179;26423;-82
2024/02/15 01:45:43;;;;;;;7.47;4.60;;;12.00;99.90;;;;;;797114;179;26415;-81
2024/02/15 01:48:10;;;;;;;6.83;4.80;;;12.00;99.90;;;;;;779072;183;26485;-82
2024/02/15 01:50:36;;;;;;;7.23;5.07;;;12.00;99.90;;;;;;776496;183;26446;-81
2024/02/15 01:53:03;;;;;;;6.67;4.90;;;12.00;99.90;;;;;;777719;180;26491;-80
2024/02/15 01:55:30;;;;;;;7.13;5.53;;;12.00;99.90;;;;;;772074;180;26537;-81
2024/02/15 01:57:56;;;;;;;10.87;5.00;;;11.90;99.90;;;;;;778517;181;26474;-80
2024/02/15 02:00:24;;;;;;;6.30;5.20;;;11.90;99.90;;;;;;778074;183;27034;-81
2024/02/15 02:02:49;;;;;;;9.73;6.30;;;11.90;99.90;;;;;;788484;177;26479;-80
2024/02/15 02:05:16;;;;;;;8.87;5.33;;;11.90;99.90;;;;;;784286;180;26478;-80
2024/02/15 02:07:43;;;;;;;8.33;5.40;;;11.90;99.90;;;;;;780227;181;27110;-82
2024/02/15 02:10:12;;;;;;;9.80;5.10;;;11.90;99.90;;;;;;777272;183;26455;-81
2024/02/15 02:12:39;;;;;;;6.20;4.47;;;11.90;99.90;;;;;;779064;177;26479;-81
2024/02/15 02:15:07;;;;;;;7.40;4.67;;;12.00;99.90;;;;;;779166;177;26463;-81
2024/02/15 02:17:35;;;;;;;7.40;4.53;;;12.00;99.90;;;;;;779392;178;26483;-81
2024/02/15 02:20:00;;;;;;;5.03;4.20;;;12.00;99.90;;;;;;779226;179;26452;-82
2024/02/15 02:22:29;;;;;;;6.70;4.03;;;12.10;99.90;;;;;;778387;182;27018;-82
2024/02/15 02:25:03;;;;;;;9.17;4.37;;;12.10;99.90;;;;;;778253;180;26462;-81
2024/02/15 02:27:28;;;;;;;7.43;3.83;;;12.20;99.90;;;;;;778622;177;26472;-81
2024/02/15 02:29:55;;;;;;;7.90;4.13;;;12.20;99.90;;;;;;779084;183;27034;-82
2024/02/15 02:32:21;;;;;;;10.97;4.83;;;12.10;99.90;;;;;;777827;178;26499;-81
2024/02/15 02:34:48;;;;;;;6.50;4.40;;;12.10;99.90;;;;;;777404;184;28053;-82
2024/02/15 02:37:14;;;;;;;5.07;3.83;;;12.10;99.90;;;;;;778753;184;26477;-81
2024/02/15 02:39:42;;;;;;;7.10;4.13;;;12.00;99.90;;;;;;779062;183;26449;-81
2024/02/15 02:42:08;;;;;;;7.13;4.77;;;12.00;99.90;;;;;;777975;179;26478;-81
2024/02/15 02:44:34;;;;;;;9.30;4.87;;;11.90;99.90;;;;;;778283;184;26484;-81
2024/02/15 02:47:01;;;;;;;8.33;5.40;;;11.90;99.90;;;;;;778935;182;27014;-81
2024/02/15 02:49:27;;;;;;;7.27;4.53;;;11.90;99.90;;;;;;776449;183;26471;-81
2024/02/15 02:51:54;;;;;;;7.07;5.20;;;11.90;99.90;;;;;;777596;183;26479;-81
2024/02/15 02:54:21;;;;;;;8.60;5.20;;;11.90;99.90;;;;;;776846;176;26503;-81
2024/02/15 02:56:48;;;;;;;9.67;4.70;;;11.90;99.90;;;;;;777712;182;26503;-82
2024/02/15 02:59:16;;;;;;;7.67;5.30;;;11.80;99.90;;;;;;777605;183;26482;-82
2024/02/15 03:01:41;;;;;;;7.90;5.07;;;11.80;99.90;;;;;;777356;179;26469;-82
2024/02/15 03:04:08;;;;;;;6.13;4.90;;;11.80;99.90;;;;;;778572;178;26454;-82
2024/02/15 03:06:34;;;;;;;9.50;5.60;;;11.80;99.90;;;;;;778385;182;26534;-81
2024/02/15 03:09:01;;;;;;;7.53;4.43;;;11.80;99.90;;;;;;778437;180;26463;-81
2024/02/15 03:11:27;;;;;;;7.27;4.77;;;11.80;99.90;;;;;;777366;183;26512;-82
2024/02/15 03:13:54;;;;;;;8.97;4.60;;;11.80;99.90;;;;;;778448;182;26448;-82
2024/02/15 03:16:24;;;;;;;6.77;4.27;;;11.70;99.90;;;;;;777564;185;26466;-82
2024/02/15 03:18:49;;;;;;;10.30;5.00;;;11.70;99.90;;;;;;776830;180;26466;-82
2024/02/15 03:21:16;;;;;;;6.20;4.63;;;11.70;99.90;;;;;;777058;185;26516;-81
2024/02/15 03:23:42;;;;;;;9.63;5.10;;;11.70;99.90;;;;;;778934;182;26544;-81
2024/02/15 03:26:09;;;;;;;7.53;4.80;;;11.60;99.90;;;;;;780398;182;26666;-82
2024/02/15 03:28:37;;;;;;;6.57;4.93;;;11.60;99.90;;;;;;780035;178;27036;-82
2024/02/15 03:31:02;;;;;;;7.27;4.70;;;11.60;99.90;;;;;;778319;178;26504;-82
2024/02/15 03:33:35;;;;;;;5.90;4.73;;;11.60;99.90;;;;;;778062;182;26452;-82
2024/02/15 03:35:59;;;;;;;7.80;5.10;;;11.70;99.90;;;;;;778579;178;26638;-82
2024/02/15 03:38:22;;;;;;;10.57;4.83;;;11.70;99.90;;;;;;777830;178;26482;-82
2024/02/15 03:40:49;;;;;;;7.77;4.77;;;11.60;99.90;;;;;;778972;184;27086;-82
2024/02/15 03:43:15;;;;;;;7.67;4.43;;;11.60;99.90;;;;;;778820;184;26486;-82
2024/02/15 03:45:44;;;;;;;7.37;5.17;;;11.70;99.90;;;;;;778854;182;26471;-82
2024/02/15 03:48:09;;;;;;;5.33;4.10;;;11.70;99.90;;;;;;780281;177;26490;-82
2024/02/15 03:50:35;;;;;;;7.07;4.53;;;11.70;99.90;;;;;;777744;177;27154;-81
2024/02/15 03:53:02;;;;;;;7.43;4.57;;;11.70;99.90;;;;;;776425;184;26493;-82
2024/02/15 03:55:29;;;;;;;8.10;5.07;;;11.60;99.90;;;;;;777531;182;26455;-82
2024/02/15 03:57:57;;;;;;;8.17;4.90;;;11.70;99.90;;;;;;776286;182;27055;-82
2024/02/15 04:00:24;;;;;;;8.80;4.80;;;11.70;99.90;;;;;;778186;182;26451;-82
2024/02/15 04:02:49;;;;;;;7.13;4.60;;;11.70;99.90;;;;;;778060;178;26462;-83
2024/02/15 04:05:17;;;;;;;8.93;4.57;;;11.70;99.90;;;;;;777921;183;26510;-81
2024/02/15 04:07:43;;;;;;;13.13;5.17;;;11.70;99.90;;;;;;776417;178;27070;-80
2024/02/15 04:10:09;;;;;;;9.10;4.50;;;11.60;99.90;;;;;;778373;179;26458;-80
2024/02/15 04:12:36;;;;;;;9.03;4.50;;;11.60;99.90;;;;;;776912;183;27007;-81
2024/02/15 04:15:11;;;;;;;7.50;4.10;;;11.50;99.90;;;;;;785540;174;26650;-76
2024/02/15 04:17:34;;;;;;;10.70;4.70;;;11.60;99.90;;;;;;783794;177;27031;-75
2024/02/15 04:19:58;;;;;;;7.30;4.70;;;11.50;99.90;;;;;;807336;174;26446;-76
2024/02/15 04:22:25;;;;;;;8.33;4.27;;;11.50;99.90;;;;;;784523;181;27048;-76
2024/02/15 04:24:51;;;;;;;8.20;4.60;;;11.50;99.90;;;;;;810483;176;26550;-76
2024/02/15 04:27:20;;;;;;;9.53;4.70;;;11.50;99.90;;;;;;799477;177;26395;-76
2024/02/15 04:29:46;;;;;;;5.93;4.70;;;11.60;99.90;;;;;;798227;176;26376;-76
2024/02/15 04:32:11;;;;;;;8.10;4.60;;;11.60;99.90;;;;;;796706;176;27009;-76
2024/02/15 04:34:38;;;;;;;8.43;4.67;;;11.60;99.90;;;;;;794865;176;26467;-76
2024/02/15 04:37:06;;;;;;;9.33;4.13;;;11.60;99.90;;;;;;796225;175;26498;-76
2024/02/15 04:39:33;;;;;;;7.90;4.13;;;11.60;99.90;;;;;;804634;176;27070;-77
2024/02/15 04:42:00;;;;;;;8.03;4.43;;;11.60;99.90;;;;;;804991;176;26396;-77
2024/02/15 04:44:27;;;;;;;7.00;4.57;;;11.70;99.90;;;;;;805029;176;26382;-77
2024/02/15 04:46:53;;;;;;;7.70;4.03;;;11.70;99.90;;;;;;800256;176;26364;-77
2024/02/15 04:49:19;;;;;;;6.87;4.80;;;11.70;99.90;;;;;;801681;177;26442;-77
2024/02/15 04:51:47;;;;;;;6.07;4.17;;;11.70;99.90;;;;;;816841;173;26892;-77
2024/02/15 04:54:13;;;;;;;7.73;4.00;;;11.70;99.90;;;;;;800685;174;26450;-76
2024/02/15 04:56:40;;;;;;;9.63;4.03;;;11.80;99.90;;;;;;809792;174;26378;-77
2024/02/15 04:59:08;;;;;;;8.40;4.40;;;11.80;99.90;;;;;;790448;178;26367;-77
2024/02/15 05:01:34;;;;;;;5.50;4.20;;;11.80;99.90;;;;;;817923;173;26395;-76
2024/02/15 05:04:05;;;;;;;5.77;4.33;;;11.80;99.90;;;;;;822787;173;26452;-78
2024/02/15 05:06:29;;;;;;;12.77;5.00;;;11.90;99.90;;;;;;821046;174;26417;-77
2024/02/15 05:08:56;;;;;;;7.07;4.50;;;11.80;99.90;;;;;;820950;174;26370;-77
2024/02/15 05:11:22;;;;;;;9.30;4.07;;;11.80;99.90;;;;;;820813;173;26391;-76
2024/02/15 05:13:50;;;;;;;9.90;4.23;;;11.80;99.90;;;;;;821461;174;26382;-76
2024/02/15 05:16:14;;;;;;;8.90;4.20;;;11.90;99.90;;;;;;819650;174;26418;-76
2024/02/15 05:18:40;;;;;;;7.90;5.60;;;11.80;99.90;;;;;;793281;177;26992;-76
2024/02/15 05:21:10;;;;;;;7.23;4.50;;;11.80;99.90;;;;;;806382;177;26385;-77
2024/02/15 05:23:37;;;;;;;6.87;3.90;;;11.80;99.90;;;;;;799347;176;26456;-76
2024/02/15 05:26:03;;;;;;;9.77;4.50;;;11.80;99.90;;;;;;805250;176;26879;-76
2024/02/15 05:28:30;;;;;;;6.90;4.53;;;11.90;99.90;;;;;;816332;175;26537;-77
2024/02/15 05:31:08;;;;;;;8.07;4.13;;;11.90;99.90;;;;;;822832;174;26379;-76
2024/02/15 05:33:36;;;;;;;9.03;4.60;;;11.80;99.90;;;;;;824722;174;26383;-76
2024/02/15 05:36:01;;;;;;;7.93;4.73;;;11.80;99.90;;;;;;821149;174;27021;-72
2024/02/15 05:38:28;;;;;;;6.33;4.30;;;11.80;99.90;;;;;;820758;174;26421;-73
2024/02/15 05:40:55;;;;;;;8.63;4.57;;;11.80;99.90;;;;;;820731;171;26965;-77
2024/02/15 05:43:21;;;;;;;8.67;4.27;;;11.80;99.90;;;;;;820473;174;26452;-76
2024/02/15 05:45:49;;;;;;;8.73;4.60;;;11.80;99.90;;;;;;820918;172;28117;-76
2024/02/15 05:48:14;;;;;;;10.67;4.47;;;11.80;99.90;;;;;;822860;173;26548;-73
2024/02/15 05:50:41;;;;;;;9.73;4.70;;;11.80;99.90;;;;;;802555;176;26937;-77
2024/02/15 05:53:08;;;;;;;11.13;5.67;;;11.80;99.90;;;;;;815768;174;28093;-76
2024/02/15 05:55:36;;;;;;;7.63;4.67;;;11.70;99.90;;;;;;817939;173;27000;-76
2024/02/15 05:58:01;;;;;;;7.20;4.57;;;11.80;99.90;;;;;;816248;173;26422;-76
2024/02/15 06:00:29;;;;;;;9.33;4.40;;;11.80;99.90;;;;;;821432;174;26441;-77
2024/02/15 06:02:55;;;;;;;10.77;4.90;;;11.70;99.90;;;;;;819933;171;26452;-77
2024/02/15 06:05:21;;;;;;;10.13;4.90;;;11.70;99.90;;;;;;821554;172;26555;-75
2024/02/15 06:07:47;;;;;;;9.67;4.77;;;11.80;99.90;;;;;;814537;174;27012;-77
2024/02/15 06:10:14;;;;;;;8.10;4.53;;;11.80;99.90;;;;;;816506;174;26437;-76
2024/02/15 06:12:41;;;;;;;10.40;4.63;;;11.70;99.90;;;;;;823470;174;26967;-77
2024/02/15 06:15:14;;;;;;;12.23;5.50;;;11.70;99.90;;;;;;817173;170;26449;-77
2024/02/15 06:17:34;;;;;;;9.10;4.77;;;11.70;99.90;;;;;;817687;174;26450;-77
2024/02/15 06:20:01;;;;;;;8.73;5.03;;;11.80;99.90;;;;;;816136;171;27004;-77
2024/02/15 06:22:28;;;;;;;9.50;4.80;;;11.80;99.90;;;;;;818827;174;26421;-77
2024/02/15 06:24:55;;;;;;;9.37;4.47;;;11.90;99.90;;;;;;820703;174;26482;-76
2024/02/15 06:27:24;;;;;;;13.90;5.23;;;11.90;99.90;;;;;;821775;174;26417;-76
2024/02/15 06:40:09;;;;;;;8.33;4.60;;;11.90;99.90;;;;;;813606;175;26434;-75
2024/02/15 06:42:35;;;;;;;10.87;4.50;;;11.90;99.90;;;;;;815461;174;26964;-76
2024/02/15 06:45:02;;;;;;;8.37;5.00;;;11.90;99.90;;;;;;823308;174;26452;-77
2024/02/15 06:47:28;;;;;;;9.63;5.03;;;11.90;99.90;;;;;;817589;174;26464;-76
2024/02/15 06:49:56;;;;;;;6.53;4.73;;;11.90;99.90;;;;;;818245;174;26479;-76
2024/02/15 06:52:22;;;;;;;10.93;5.87;;;11.90;99.90;;;;;;813851;174;26592;-75
2024/02/15 06:54:50;;;;;;;9.33;5.07;;;11.90;99.90;;;;;;815110;174;26439;-76
2024/02/15 06:57:15;;;;;;;9.13;4.83;;;11.90;99.90;;;;;;817089;172;26422;-76
2024/02/15 06:59:42;;;;;;;15.37;5.27;;;11.90;99.90;;;;;;819252;172;26493;-76
2024/02/15 07:02:07;;;;;;;12.40;5.10;;;11.80;99.90;;;;;;819934;173;26559;-77
2024/02/15 07:04:34;;;;;;;8.43;4.33;;;11.80;99.90;;;;;;824048;174;26432;-77
2024/02/15 07:07:02;;;;;;;10.37;4.77;;;11.80;99.90;;;;;;815476;174;26469;-78
2024/02/15 07:09:27;;;;;;;12.20;5.20;;;11.80;99.90;;;;;;815095;174;26990;-75
2024/02/15 07:11:54;;;;;;;9.30;5.03;;;11.80;99.90;;;;;;811619;174;26458;-76
2024/02/15 07:14:20;;;;;;;9.87;5.53;;;11.90;99.90;;;;;;815463;174;26437;-76
2024/02/15 07:16:47;;;;;;;9.53;5.07;;;11.90;99.90;;;;;;822942;174;26437;-76
2024/02/15 07:19:15;;;;;;;11.63;5.63;;;11.90;99.90;;;;;;815114;173;26988;-75
2024/02/15 07:21:40;;;;;;;12.57;5.17;;;11.90;99.90;;;;;;811746;174;26438;-77
2024/02/15 07:24:07;;;;;;;11.03;4.70;;;11.90;99.90;;;;;;818190;174;26478;-76
2024/02/15 07:26:36;;;;;;;9.80;5.17;;;11.90;99.90;;;;;;812178;174;26450;-77
2024/02/15 07:29:00;;;;;;;10.17;5.00;;;11.90;99.90;;;;;;817189;174;28129;-76
2024/02/15 07:31:29;;;;;;;8.10;4.80;;;11.90;99.90;;;;;;811319;174;26429;-75
2024/02/15 07:33:56;;;;;;;11.40;6.00;;;11.90;99.90;;;;;;818160;174;26487;-77
2024/02/15 07:36:22;;;;;;;10.77;5.23;;;11.90;99.90;;;;;;821117;174;26496;-76
2024/02/15 07:38:50;;;;;;;11.87;5.33;;;11.90;99.90;;;;;;809556;174;26413;-77
2024/02/15 07:41:22;;;;;;;10.47;5.60;;;11.90;99.90;;;;;;821470;174;26442;-77
2024/02/15 07:43:47;;;;;;;11.83;6.10;;;11.90;99.90;;;;;;821810;174;26448;-75
2024/02/15 07:46:14;;;;;;;15.53;6.27;;;11.90;99.90;;;;;;820503;174;26433;-77
2024/02/15 07:48:44;;;;;;;13.57;5.50;;;12.00;99.90;;;;;;821369;174;26438;-76
2024/02/15 07:51:09;;;;;;;9.93;5.30;;;12.00;99.90;;;;;;815992;174;26398;-77
2024/02/15 07:53:32;;;;;;;10.73;4.93;;;12.00;99.90;;;;;;814894;175;26968;-77
2024/02/15 07:55:59;;;;;;;9.87;5.50;;;12.00;99.90;;;;;;818800;174;26438;-75
2024/02/15 07:58:26;;;;;;;10.97;5.33;;;12.00;99.90;;;;;;812312;175;27030;-77
2024/02/15 08:00:53;;;;;;;9.80;6.50;;;12.00;99.90;;;;;;816452;175;26410;-77
2024/02/15 08:03:19;;;;;;;12.33;5.40;;;12.00;99.90;;;;;;813572;175;27023;-77
2024/02/15 08:05:45;;;;;;;14.57;6.00;;;12.00;99.90;;;;;;817837;173;26564;-76
2024/02/15 08:08:13;;;;;;;12.07;5.57;;;12.10;99.90;;;;;;822869;174;26559;-76
2024/02/15 08:10:39;;;;;;;10.63;5.77;;;12.10;99.90;;;;;;819564;174;26393;-77
2024/02/15 08:13:06;;;;;;;16.67;6.30;;;12.00;99.90;;;;;;823964;173;27612;-77
2024/02/15 08:15:33;;;;;;;10.57;5.93;;;12.00;99.90;;;;;;818192;174;26433;-76
2024/02/15 08:18:04;;;;;;;16.93;6.43;;;12.10;99.90;;;;;;823526;172;26416;-76
2024/02/15 08:20:31;;;;;;;20.43;6.93;;;12.00;99.90;;;;;;811020;174;26410;-76
2024/02/15 08:22:53;;;;;;;12.07;6.00;;;12.00;99.90;;;;;;816506;174;26421;-77
2024/02/15 08:25:20;;;;;;;11.73;7.00;;;12.10;99.90;;;;;;814578;174;26422;-77
2024/02/15 08:27:49;;;;;;;12.53;6.47;;;12.10;99.90;;;;;;816001;174;26445;-77
2024/02/15 08:30:15;;;;;;;9.00;5.40;;;12.10;99.90;;;;;;820957;173;26979;-77
2024/02/15 08:32:42;;;;;;;13.70;6.23;;;12.10;99.90;;;;;;818671;174;26414;-76
2024/02/15 08:35:09;;;;;;;14.73;6.20;;;12.10;99.90;;;;;;819867;174;26454;-76
2024/02/15 08:37:35;;;;;;;20.80;8.97;;;12.10;99.90;;;;;;820517;174;26531;-76
2024/02/15 08:40:04;;;;;;;14.60;6.53;;;12.10;99.90;;;;;;814479;174;26426;-77
2024/02/15 08:42:30;;;;;;;15.17;6.90;;;12.10;99.90;;;;;;814989;174;26417;-77
2024/02/15 08:44:59;;;;;;;14.27;6.37;;;12.00;99.90;;;;;;812866;174;26446;-76
2024/02/15 08:47:24;;;;;;;14.27;6.30;;;12.00;99.90;;;;;;817486;175;26426;-76
2024/02/15 08:49:50;;;;;;;12.13;6.13;;;11.90;99.90;;;;;;813758;174;26430;-77
2024/02/15 08:52:18;;;;;;;11.70;5.53;;;12.00;99.90;;;;;;818749;174;26409;-77
2024/02/15 08:54:43;;;;;;;16.13;5.90;;;12.00;99.90;;;;;;821269;174;26460;-77
2024/02/15 08:57:11;;;;;;;11.87;6.40;;;12.00;99.90;;;;;;811147;174;26498;-77
2024/02/15 08:59:37;;;;;;;19.53;6.20;;;12.00;99.90;;;;;;819180;174;26450;-78
2024/02/15 09:02:05;;;;;;;9.87;5.70;;;12.10;99.90;;;;;;819325;174;26437;-78
2024/02/15 09:04:30;;;;;;;13.17;5.77;;;12.20;99.90;;;;;;820378;175;26421;-77
2024/02/15 09:06:56;;;;;;;11.20;4.80;;;12.30;99.90;;;;;;819521;175;26406;-77
2024/02/15 09:09:23;;;;;;;11.23;5.23;;;12.30;99.90;;;;;;823240;173;26413;-77
2024/02/15 09:11:50;;;;;;;11.93;5.03;;;12.40;99.90;;;;;;821620;173;26430;-79
2024/02/15 09:14:16;;;;;;;9.33;4.97;;;12.40;99.90;;;;;;818976;174;26528;-78
2024/02/15 09:16:43;;;;;;;10.70;5.13;;;12.50;99.90;;;;;;818406;174;26589;-78
2024/02/15 09:19:09;;;;;;;7.03;4.40;;;12.60;99.90;;;;;;814516;175;26410;-78
2024/02/15 09:21:36;;;;;;;11.63;4.67;;;12.60;99.90;;;;;;822872;172;26446;-78
2024/02/15 09:24:03;;;;;;;10.70;4.60;;;12.70;99.90;;;;;;820829;173;26426;-78
2024/02/15 09:26:29;;;;;;;11.27;4.37;;;12.80;99.90;;;;;;822365;174;26376;-78
2024/02/15 09:28:56;;;;;;;8.57;4.40;;;12.90;99.90;;;;;;821673;174;26412;-78
2024/02/15 09:31:24;;;;;;;9.87;4.50;;;12.90;99.90;;;;;;823053;174;26410;-77
2024/02/15 09:33:49;;;;;;;8.73;4.00;;;13.00;99.90;;;;;;820191;173;26417;-78
2024/02/15 09:36:16;;;;;;;10.73;4.90;;;12.90;99.90;;;;;;821580;174;26433;-77
2024/02/15 09:38:42;;;;;;;9.17;4.10;;;13.00;99.90;;;;;;820443;174;26409;-78
2024/02/15 09:41:09;;;;;;;12.63;4.33;;;13.00;99.90;;;;;;814716;174;26406;-78
2024/02/15 09:43:35;;;;;;;11.00;4.30;;;13.10;99.90;;;;;;814360;174;26414;-77
2024/02/15 09:46:04;;;;;;;8.67;3.77;;;13.20;99.90;;;;;;823621;174;26463;-79
2024/02/15 09:48:30;;;;;;;16.50;4.77;;;13.20;99.90;;;;;;818842;173;26436;-79
2024/02/15 09:50:56;;;;;;;9.63;3.90;;;13.30;99.90;;;;;;817888;173;26455;-78
2024/02/15 09:53:25;;;;;;;7.33;3.37;;;13.30;99.90;;;;;;821900;174;26439;-78
2024/02/15 09:55:49;;;;;;;6.13;3.70;;;13.40;99.90;;;;;;815211;174;26450;-79
2024/02/15 09:58:17;;;;;;;7.70;3.53;;;13.60;99.90;;;;;;821639;174;26417;-78
2024/02/15 10:00:44;;;;;;;7.93;3.87;;;13.60;99.90;;;;;;811678;173;26393;-78
2024/02/15 10:03:09;;;;;;;12.30;3.87;;;13.60;99.90;;;;;;814775;174;26414;-78
2024/02/15 10:05:35;;;;;;;8.63;3.50;;;13.70;99.90;;;;;;821999;174;27072;-78
2024/02/15 10:08:02;;;;;;;11.30;3.73;;;13.70;99.90;;;;;;818969;174;26419;-77
2024/02/15 10:10:29;;;;;;;15.70;3.87;;;13.70;99.90;;;;;;812375;171;27000;-78
2024/02/15 10:12:55;;;;;;;6.07;3.60;;;13.80;99.90;;;;;;813223;174;26414;-78
2024/02/15 10:15:40;;;;;;;10.43;3.50;;;13.80;99.90;;;;;;800921;174;26488;-81
2024/02/15 10:18:08;;;;;;;9.27;3.60;;;13.80;99.90;;;;;;808693;175;26410;-80
2024/02/15 10:20:37;;;;;;;6.47;3.20;;;13.80;99.90;;;;;;808663;171;26437;-79
2024/02/15 10:23:20;;;;;;;8.03;3.40;;;13.70;99.90;;;;;;807287;175;26420;-79
2024/02/15 10:25:50;;;;;;;8.90;3.50;;;13.70;99.90;;;;;;808276;175;26600;-77
2024/02/15 10:28:25;;;;;;;10.80;3.50;;;13.70;99.90;;;;;;806924;172;26419;-80
2024/02/15 10:30:52;;;;;;;9.33;3.30;;;13.70;99.90;;;;;;808022;177;26432;-78
2024/02/15 10:33:21;;;;;;;7.13;3.20;;;13.70;99.90;;;;;;811077;174;26417;-81
2024/02/15 10:35:50;;;;;;;6.33;2.87;;;13.80;99.90;;;;;;808887;172;26422;-78
2024/02/15 10:38:16;;;;;;;7.17;3.30;;;13.90;99.90;;;;;;807558;176;26416;-78
2024/02/15 10:40:50;;;;;;;10.10;3.60;;;14.10;99.90;;;;;;808958;176;26404;-81
2024/02/15 10:43:18;;;;;;;6.83;3.50;;;14.10;99.90;;;;;;812000;176;26418;-79
2024/02/15 10:48:24;;;;;;;7.20;3.20;;;14.40;99.90;;;;;;812902;176;26427;-80
2024/02/15 10:50:59;;;;;;;10.17;3.57;;;14.40;99.90;;;;;;811399;173;26408;-79
2024/02/15 10:53:31;;;;;;;5.40;3.63;;;14.40;99.90;;;;;;811354;173;28868;-78
2024/02/15 10:56:05;;;;;;;8.33;4.03;;;14.40;99.90;;;;;;809158;173;26973;-80
2024/02/15 10:58:34;;;;;;;7.07;3.30;;;14.60;99.90;;;;;;810553;174;26423;-78
2024/02/15 11:01:02;;;;;;;5.33;2.67;;;14.60;99.90;;;;;;808603;177;26410;-78
2024/02/15 11:03:32;;;;;;;6.63;3.20;;;14.70;99.90;;;;;;808392;176;26434;-80
2024/02/15 11:08:37;;;;;;;8.30;3.47;;;14.90;99.90;;;;;;808885;177;26407;-79
2024/02/15 11:11:05;;;;;;;7.40;3.17;;;14.70;99.90;;;;;;813118;177;26406;-77
2024/02/15 11:13:39;;;;;;;5.90;3.03;;;14.70;99.90;;;;;;809642;177;26408;-80
2024/02/15 11:16:06;;;;;;;6.30;2.97;;;14.90;99.90;;;;;;807890;178;26459;-76
2024/02/15 11:18:44;;;;;;;7.73;3.37;;;15.10;99.90;;;;;;812162;173;26410;-78
2024/02/15 11:21:16;;;;;;;7.53;3.20;;;15.50;99.90;;;;;;809683;177;26383;-80
2024/02/15 11:23:42;;;;;;;7.17;3.40;;;15.60;99.90;;;;;;809308;174;26408;-81
2024/02/15 11:26:09;;;;;;;7.40;3.10;;;15.70;99.90;;;;;;803944;174;26480;-85
2024/02/15 11:28:38;;;;;;;4.90;3.10;;;15.70;99.90;;;;;;803287;178;26440;-84
2024/02/15 11:31:04;;;;;;;5.87;3.50;;;15.70;99.90;;;;;;779150;182;26615;-86
2024/02/15 11:33:30;;;;;;;6.97;3.60;;;15.50;99.90;;;;;;785624;180;26446;-85
2024/02/15 11:36:05;;;;;;;11.03;3.40;;;15.70;99.90;;;;;;786913;180;26470;-85
2024/02/15 11:38:32;;;;;;;6.83;3.27;;;15.90;99.90;;;;;;792129;180;26462;-85
2024/02/15 11:41:00;;;;;;;8.17;3.90;;;15.90;99.90;;;;;;794562;178;26507;-86
2024/02/15 11:43:40;;;;;;;8.73;4.20;;;16.00;99.70;;;;;;785780;180;26443;-87
2024/02/15 11:46:06;;;;;;;9.67;3.77;;;16.10;98.80;;;;;;789499;177;26424;-85
2024/02/15 11:48:33;;;;;;;8.13;3.30;;;16.10;99.80;;;;;;805722;174;26974;-85
2024/02/15 11:50:59;;;;;;;6.40;3.50;;;16.20;99.70;;;;;;777929;181;27013;-85
2024/02/15 11:53:27;;;;;;;7.83;3.40;;;16.20;98.20;;;;;;811113;176;26390;-86
2024/02/15 11:55:54;;;;;;;8.30;3.33;;;16.50;98.80;;;;;;785681;181;26431;-86
2024/02/15 11:58:30;;;;;;;6.57;3.43;;;16.90;98.30;;;;;;801057;179;26488;-86
2024/02/15 12:18:52;;;;;;;7.67;3.60;;;18.70;91.40;;;;;;810652;177;26402;-76
2024/02/15 12:21:16;;;;;;;6.87;3.23;;;18.10;91.60;;;;;;784426;180;26458;-79
2024/02/15 12:23:43;;;;;;;8.70;3.93;;;17.60;93.10;;;;;;810643;174;26476;-79
2024/02/15 12:26:28;;;;;;;6.73;3.63;;;17.40;94.80;;;;;;805639;177;26443;-79
2024/02/15 12:28:58;;;;;;;6.83;3.80;;;17.70;95.50;;;;;;784471;183;27032;-80
2024/02/15 12:31:31;;;;;;;5.47;2.93;;;18.00;94.00;;;;;;794342;180;26454;-78
2024/02/15 12:34:01;;;;;;;6.37;3.00;;;18.30;93.20;;;;;;808637;173;26440;-78
2024/02/15 12:36:29;;;;;;;6.60;3.30;;;18.30;93.10;;;;;;781776;182;26473;-79
2024/02/15 12:38:59;;;;;;;7.13;3.03;;;18.60;93.70;;;;;;809181;175;26412;-79
2024/02/15 12:41:29;;;;;;;7.07;3.23;;;18.40;92.50;;;;;;812886;174;26524;-78
2024/02/15 12:44:01;;;;;;;8.03;3.30;;;18.40;93.40;;;;;;806750;176;26480;-79
2024/02/15 12:46:29;;;;;;;7.30;3.30;;;18.40;94.30;;;;;;790201;176;26519;-79
2024/02/15 12:49:08;;;;;;;7.57;3.40;;;17.90;92.60;;;;;;810408;171;26444;31
2024/02/15 12:51:38;;;;;;;6.50;2.90;;;17.90;94.60;;;;;;785227;183;29322;-87
2024/02/15 12:54:11;;;;;;;7.10;3.20;;;18.00;92.60;;;;;;786252;183;26445;-87
2024/02/15 12:56:39;;;;;;;4.60;2.90;;;18.30;94.50;;;;;;785252;179;26436;-86
2024/02/15 12:59:04;;;;;;;5.03;2.83;;;18.60;91.30;;;;;;779271;184;26460;-87
2024/02/15 13:01:30;;;;;;;6.07;2.83;;;18.60;93.50;;;;;;778709;183;26429;-86
2024/02/15 13:03:58;;;;;;;7.07;2.90;;;18.30;91.50;;;;;;778630;180;26507;-86
2024/02/15 13:06:25;;;;;;;6.47;3.53;;;17.90;92.00;;;;;;778616;182;26483;-87
2024/02/15 13:08:53;;;;;;;7.53;3.97;;;17.80;93.50;;;;;;777858;185;26468;-86
2024/02/15 13:11:20;;;;;;;7.77;3.63;;;17.60;92.70;;;;;;813414;177;26413;-86
2024/02/15 13:13:47;;;;;;;8.13;3.60;;;17.60;93.90;;;;;;808246;178;26454;-86
2024/02/15 13:16:28;;;;;;;6.33;2.67;;;17.30;93.80;;;;;;810687;177;26407;-87